createdAt,value
2023-01-31T00:00:36.119Z,98255.81
2023-01-31T00:03:05.919Z,98260.13
2023-01-31T00:05:34.276Z,98256.25
2023-01-31T00:08:02.693Z,98257.75
2023-01-31T00:10:31.093Z,98265.53
2023-01-31T00:12:59.578Z,98262.88
2023-01-31T00:15:27.932Z,98264.56
2023-01-31T00:17:56.323Z,98270.94
2023-01-31T00:20:26.057Z,98267.44
2023-01-31T00:22:54.699Z,98263.94
2023-01-31T00:25:23.110Z,98271.72
2023-01-31T00:27:51.407Z,98276.22
2023-01-31T00:30:19.840Z,98269.09
2023-01-31T00:32:48.217Z,98279.44
2023-01-31T00:35:16.638Z,98294.19
2023-01-31T00:37:47.560Z,98287.59
2023-01-31T00:40:16.037Z,98299.13
2023-01-31T00:42:47.208Z,98299.97
2023-01-31T00:45:15.600Z,98298.19
2023-01-31T00:47:43.947Z,98288.63
2023-01-31T00:50:16.628Z,98293.75
2023-01-31T00:52:45.090Z,98305.09
2023-01-31T00:55:14.860Z,98301.09
2023-01-31T00:57:43.261Z,98304.66
2023-01-31T01:00:13.079Z,98315.72
2023-01-31T01:02:41.642Z,98308.69
2023-01-31T01:05:10.432Z,98328.16
2023-01-31T01:07:38.833Z,98327.47
2023-01-31T01:10:08.417Z,98325.28
2023-01-31T01:12:38.080Z,98337.72
2023-01-31T01:15:07.535Z,98334.38
2023-01-31T01:17:36.154Z,98350.16
2023-01-31T01:20:05.639Z,98356.41
2023-01-31T01:22:36.790Z,98364.38
2023-01-31T01:25:06.246Z,98363.59
2023-01-31T01:27:34.850Z,98360.28
2023-01-31T01:30:05.751Z,98355.22
2023-01-31T01:32:34.068Z,98360.91
2023-01-31T01:35:02.904Z,98360.84
2023-01-31T01:37:32.532Z,98370.16
2023-01-31T01:40:01.004Z,98384.63
2023-01-31T01:42:36.302Z,98382.25
2023-01-31T01:45:15.997Z,98392.28
2023-01-31T01:47:50.325Z,98389.78
2023-01-31T01:50:23.504Z,98394.06
2023-01-31T01:52:55.044Z,98391.69
2023-01-31T01:55:28.119Z,98389.84
2023-01-31T01:58:02.055Z,98387.25
2023-01-31T02:00:32.897Z,98388.09
2023-01-31T02:03:03.029Z,98393.72
2023-01-31T02:05:34.471Z,98390.25
2023-01-31T02:08:04.162Z,98393.72
2023-01-31T02:10:38.623Z,98401.25
2023-01-31T02:13:08.484Z,98403.03
2023-01-31T02:15:38.813Z,98406.38
2023-01-31T02:18:08.528Z,98414.28
2023-01-31T02:21:10.032Z,98417.09
2023-01-31T02:24:07.864Z,98420.44
2023-01-31T02:27:11.814Z,98421.06
2023-01-31T02:30:14.172Z,98425.69
2023-01-31T02:32:59.145Z,98424.31
2023-01-31T02:35:39.881Z,98431.19
2023-01-31T02:38:19.635Z,98449.50
2023-01-31T02:40:54.803Z,98447.78
2023-01-31T02:43:33.822Z,98449.50
2023-01-31T02:46:11.535Z,98448.72
2023-01-31T02:48:53.684Z,98455.72
2023-01-31T02:51:27.828Z,98451.53
2023-01-31T02:54:06.436Z,98460.28
2023-01-31T02:56:37.132Z,98465.50
2023-01-31T02:59:11.677Z,98464.19
2023-01-31T03:01:43.214Z,98472.84
2023-01-31T03:04:14.732Z,98484.28
2023-01-31T03:07:00.971Z,98489.09
2023-01-31T03:09:38.646Z,98484.91
2023-01-31T03:12:37.342Z,98501.44
2023-01-31T03:15:50.402Z,98495.00
2023-01-31T03:18:22.974Z,98501.72
2023-01-31T03:20:58.680Z,98509.56
2023-01-31T03:23:31.327Z,98509.56
2023-01-31T03:26:01.814Z,98510.53
2023-01-31T03:28:32.948Z,98526.25
2023-01-31T03:31:06.306Z,98536.69
2023-01-31T03:33:39.147Z,98538.59
2023-01-31T03:36:22.416Z,98544.47
2023-01-31T03:39:07.058Z,98535.38
2023-01-31T03:41:47.318Z,98555.38
2023-01-31T03:44:25.514Z,98560.50
2023-01-31T03:47:05.244Z,98562.28
2023-01-31T03:49:36.140Z,98557.69
2023-01-31T03:52:09.001Z,98562.03
2023-01-31T03:54:43.273Z,98555.78
2023-01-31T03:57:18.001Z,98565.34
2023-01-31T03:59:54.034Z,98567.16
2023-01-31T04:02:26.406Z,98562.66
2023-01-31T04:05:00.106Z,98576.72
2023-01-31T04:07:29.918Z,98574.09
2023-01-31T04:09:58.249Z,98582.09
2023-01-31T04:12:26.574Z,98578.75
2023-01-31T04:14:54.859Z,98585.84
2023-01-31T04:17:23.250Z,98588.47
2023-01-31T04:19:51.546Z,98595.28
2023-01-31T04:22:19.959Z,98593.38
2023-01-31T04:24:49.679Z,98593.16
2023-01-31T04:27:18.046Z,98594.88
2023-01-31T04:29:46.332Z,98598.31
2023-01-31T04:32:14.702Z,98603.38
2023-01-31T04:34:43.088Z,98602.72
2023-01-31T04:37:11.375Z,98601.03
2023-01-31T04:39:39.756Z,98609.81
2023-01-31T04:42:09.780Z,98610.66
2023-01-31T04:44:38.031Z,98613.09
2023-01-31T04:47:06.354Z,98612.25
2023-01-31T04:49:34.625Z,98614.09
2023-01-31T04:52:02.936Z,98620.03
2023-01-31T04:54:31.673Z,98623.63
2023-01-31T04:56:59.966Z,98635.00
2023-01-31T04:59:29.838Z,98629.16
2023-01-31T05:01:58.229Z,98635.03
2023-01-31T05:04:26.773Z,98630.72
2023-01-31T05:06:55.646Z,98632.50
2023-01-31T05:09:25.065Z,98635.97
2023-01-31T05:11:53.439Z,98643.81
2023-01-31T05:14:22.196Z,98642.94
2023-01-31T05:16:52.113Z,98645.47
2023-01-31T05:19:20.475Z,98651.66
2023-01-31T05:22:05.494Z,98646.34
2023-01-31T05:24:35.101Z,98661.06
2023-01-31T05:27:04.592Z,98658.56
2023-01-31T05:29:33.942Z,98650.59
2023-01-31T05:32:04.457Z,98654.19
2023-01-31T05:34:33.628Z,98663.72
2023-01-31T05:37:02.548Z,98665.53
2023-01-31T05:39:31.345Z,98667.25
2023-01-31T05:41:59.882Z,98660.19
2023-01-31T05:44:28.148Z,98666.34
2023-01-31T05:46:56.446Z,98672.50
2023-01-31T05:49:26.159Z,98668.97
2023-01-31T05:51:54.433Z,98676.63
2023-01-31T05:54:22.783Z,98678.31
2023-01-31T05:56:51.062Z,98686.16
2023-01-31T05:59:19.383Z,98697.34
2023-01-31T06:01:47.803Z,98701.72
2023-01-31T06:04:16.197Z,98704.28
2023-01-31T06:06:46.003Z,98722.72
2023-01-31T06:09:14.457Z,98725.16
2023-01-31T06:11:42.733Z,98729.38
2023-01-31T06:14:11.338Z,98728.31
2023-01-31T06:16:39.668Z,98738.03
2023-01-31T06:19:08.100Z,98735.47
2023-01-31T06:21:36.773Z,98739.97
2023-01-31T06:24:07.262Z,98746.84
2023-01-31T06:26:35.532Z,98752.81
2023-01-31T06:29:03.870Z,98757.09
2023-01-31T06:31:32.219Z,98760.84
2023-01-31T06:34:00.763Z,98765.81
2023-01-31T06:36:29.088Z,98768.34
2023-01-31T06:38:58.064Z,98771.19
2023-01-31T06:41:27.817Z,98777.22
2023-01-31T06:43:56.655Z,98774.50
2023-01-31T06:46:25.278Z,98779.63
2023-01-31T06:48:53.572Z,98785.50
2023-01-31T06:51:22.231Z,98775.88
2023-01-31T06:53:51.322Z,98781.88
2023-01-31T06:56:19.707Z,98783.84
2023-01-31T06:58:49.501Z,98787.25
2023-01-31T07:01:17.856Z,98798.53
2023-01-31T07:03:46.965Z,98791.66
2023-01-31T07:06:15.323Z,98796.03
2023-01-31T07:08:43.753Z,98810.94
2023-01-31T07:11:12.078Z,98789.88
2023-01-31T07:13:40.333Z,98798.66
2023-01-31T07:16:10.385Z,98805.59
2023-01-31T07:18:38.671Z,98809.91
2023-01-31T07:21:07.570Z,98808.06
2023-01-31T07:23:36.020Z,98813.31
2023-01-31T07:26:05.206Z,98812.47
2023-01-31T07:28:33.621Z,98820.59
2023-01-31T07:31:11.761Z,98820.50
2023-01-31T07:33:40.973Z,98816.06
2023-01-31T07:36:13.112Z,98830.84
2023-01-31T07:38:41.694Z,98835.09
2023-01-31T07:41:12.706Z,98836.03
2023-01-31T07:43:41.169Z,98841.16
2023-01-31T07:46:11.537Z,98842.09
2023-01-31T07:48:40.510Z,98843.78
2023-01-31T07:51:09.604Z,98845.44
2023-01-31T07:53:42.322Z,98866.56
2023-01-31T07:56:13.647Z,98856.94
2023-01-31T07:58:43.521Z,98861.19
2023-01-31T08:01:33.974Z,98866.31
2023-01-31T08:04:18.386Z,98873.28
2023-01-31T08:06:49.312Z,98880.19
2023-01-31T08:09:17.632Z,98882.00
2023-01-31T08:11:46.152Z,98888.75
2023-01-31T08:14:14.694Z,98887.91
2023-01-31T08:16:44.430Z,98890.59
2023-01-31T08:19:12.762Z,98890.47
2023-01-31T08:21:41.098Z,98890.53
2023-01-31T08:24:10.346Z,98897.66
2023-01-31T08:26:38.710Z,98908.13
2023-01-31T08:29:07.120Z,98908.91
2023-01-31T08:31:35.598Z,98906.09
2023-01-31T08:34:05.412Z,98908.59
2023-01-31T08:36:34.084Z,98917.38
2023-01-31T08:39:02.982Z,98909.69
2023-01-31T08:41:32.537Z,98912.50
2023-01-31T08:44:04.195Z,98913.34
2023-01-31T08:46:35.624Z,98926.50
2023-01-31T08:49:07.147Z,98922.97
2023-01-31T08:51:35.651Z,98921.16
2023-01-31T08:54:03.940Z,98934.25
2023-01-31T08:56:32.535Z,98930.88
2023-01-31T08:59:01.434Z,98931.75
2023-01-31T09:01:30.358Z,98918.53
2023-01-31T09:03:58.796Z,98925.41
2023-01-31T09:06:29.138Z,98924.56
2023-01-31T09:08:58.933Z,98925.38
2023-01-31T09:11:30.647Z,98923.50
2023-01-31T09:13:59.398Z,98924.25
2023-01-31T09:16:27.857Z,98931.44
2023-01-31T09:18:57.218Z,98949.63
2023-01-31T09:21:26.127Z,98947.06
2023-01-31T09:23:59.031Z,98954.78
2023-01-31T09:26:27.409Z,98952.06
2023-01-31T09:28:56.240Z,98957.34
2023-01-31T09:31:25.087Z,98956.44
2023-01-31T09:33:54.488Z,98958.25
2023-01-31T09:36:24.948Z,98951.91
2023-01-31T09:38:56.243Z,98949.19
2023-01-31T09:41:33.441Z,98952.38
2023-01-31T09:44:06.301Z,98944.47
2023-01-31T09:46:38.560Z,98944.47
2023-01-31T09:49:11.961Z,98946.25
2023-01-31T09:51:41.500Z,98943.47
2023-01-31T09:54:28.719Z,98944.19
2023-01-31T09:57:10.487Z,98948.50
2023-01-31T09:59:49.662Z,98940.38
2023-01-31T10:02:47.688Z,98957.00
2023-01-31T10:05:31.945Z,98950.03
2023-01-31T10:08:10.630Z,98959.66
2023-01-31T10:10:40.705Z,98963.06
2023-01-31T10:13:20.647Z,98976.22
2023-01-31T10:15:53.674Z,98974.44
2023-01-31T10:18:27.245Z,98969.22
2023-01-31T10:20:59.997Z,98962.06
2023-01-31T10:23:33.381Z,98966.41
2023-01-31T10:26:03.677Z,98970.69
2023-01-31T10:28:40.207Z,98959.38
2023-01-31T10:31:18.216Z,98957.53
2023-01-31T10:33:53.591Z,98963.56
2023-01-31T10:36:29.340Z,98957.22
2023-01-31T10:39:04.377Z,98946.84
2023-01-31T10:42:00.597Z,98945.75
2023-01-31T10:44:43.200Z,98940.63
2023-01-31T10:47:14.821Z,98935.25
2023-01-31T10:49:46.461Z,98940.69
2023-01-31T10:52:50.626Z,98946.94
2023-01-31T10:55:42.675Z,98940.06
2023-01-31T10:58:15.838Z,98938.94
2023-01-31T11:00:47.434Z,98939.44
2023-01-31T11:03:16.600Z,98924.28
2023-01-31T11:05:50.440Z,98931.44
2023-01-31T11:08:37.447Z,98930.50
2023-01-31T11:11:08.649Z,98925.31
2023-01-31T11:13:37.159Z,98921.84
2023-01-31T11:16:11.041Z,98920.94
2023-01-31T11:18:46.205Z,98913.78
2023-01-31T11:21:21.879Z,98921.50
2023-01-31T11:23:51.558Z,98918.66
2023-01-31T11:26:32.153Z,98917.06
2023-01-31T11:29:01.496Z,98906.56
2023-01-31T11:31:36.270Z,98908.41
2023-01-31T11:34:06.635Z,98900.41
2023-01-31T11:36:45.805Z,98893.38
2023-01-31T11:39:28.214Z,98885.44
2023-01-31T11:41:56.897Z,98887.00
2023-01-31T11:44:25.695Z,98886.94
2023-01-31T11:46:58.057Z,98887.78
2023-01-31T11:49:32.920Z,98886.66
2023-01-31T11:52:04.284Z,98885.06
2023-01-31T11:54:35.120Z,98893.78
2023-01-31T11:57:04.157Z,98878.22
2023-01-31T11:59:32.680Z,98880.75
2023-01-31T12:02:02.962Z,98876.16
2023-01-31T12:04:36.351Z,98876.00
2023-01-31T12:07:07.346Z,98880.22
2023-01-31T12:09:45.696Z,98867.81
2023-01-31T12:12:29.991Z,98862.59
2023-01-31T12:15:02.112Z,98858.13
2023-01-31T12:17:47.677Z,98854.63
2023-01-31T12:20:29.885Z,98849.31
2023-01-31T12:23:10.709Z,98835.44
2023-01-31T12:25:53.327Z,98837.03
2023-01-31T12:28:34.921Z,98836.72
2023-01-31T12:31:20.910Z,98836.47
2023-01-31T12:34:08.055Z,98827.69
2023-01-31T12:36:47.649Z,98830.94
2023-01-31T12:39:27.349Z,98828.31
2023-01-31T12:42:12.660Z,98823.91
2023-01-31T12:44:48.662Z,98833.56
2023-01-31T12:47:55.769Z,98829.19
2023-01-31T12:50:32.661Z,98833.84
2023-01-31T12:53:34.102Z,98832.31
2023-01-31T12:56:16.046Z,98823.53
2023-01-31T12:59:06.259Z,98824.69
2023-01-31T13:01:49.995Z,98823.31
2023-01-31T13:04:36.511Z,98831.34
2023-01-31T13:07:10.600Z,98822.00
2023-01-31T13:09:39.104Z,98812.63
2023-01-31T13:12:14.350Z,98814.38
2023-01-31T13:14:46.269Z,98823.06
2023-01-31T13:17:19.391Z,98813.59
2023-01-31T13:19:52.800Z,98815.13
2023-01-31T13:22:29.070Z,98821.06
2023-01-31T13:25:15.661Z,98827.19
2023-01-31T13:27:50.785Z,98816.59
2023-01-31T13:30:23.755Z,98814.81
2023-01-31T13:32:56.547Z,98816.44
2023-01-31T13:35:30.622Z,98807.66
2023-01-31T13:38:04.434Z,98805.78
2023-01-31T13:40:38.404Z,98801.47
2023-01-31T13:43:14.146Z,98796.00
2023-01-31T13:45:46.420Z,98788.09
2023-01-31T13:48:27.029Z,98782.72
2023-01-31T13:51:01.376Z,98775.63
2023-01-31T13:53:37.227Z,98780.34
2023-01-31T13:56:12.113Z,98778.72
2023-01-31T13:58:42.876Z,98779.19
2023-01-31T14:01:19.072Z,98775.03
2023-01-31T14:04:26.125Z,98776.03
2023-01-31T14:07:19.382Z,98764.84
2023-01-31T14:10:28.841Z,98766.59
2023-01-31T14:13:43.748Z,98768.22
2023-01-31T14:16:46.305Z,98776.03
2023-01-31T14:19:53.333Z,98771.75
2023-01-31T14:22:23.056Z,98763.84
2023-01-31T14:25:02.484Z,98760.50
2023-01-31T14:27:34.552Z,98761.50
2023-01-31T14:30:12.251Z,98766.81
2023-01-31T14:32:44.863Z,98754.72
2023-01-31T14:35:33.814Z,98755.66
2023-01-31T14:38:12.189Z,98748.78
2023-01-31T14:40:54.657Z,98750.66
2023-01-31T14:43:40.821Z,98750.78
2023-01-31T14:46:23.116Z,98755.97
2023-01-31T14:49:23.330Z,98752.41
2023-01-31T14:52:11.636Z,98745.59
2023-01-31T14:54:57.141Z,98738.53
2023-01-31T14:57:30.701Z,98730.72
2023-01-31T15:00:01.647Z,98726.44
2023-01-31T15:02:47.949Z,98719.41
2023-01-31T15:05:18.965Z,98715.00
2023-01-31T15:08:02.506Z,98719.31
2023-01-31T15:11:02.261Z,98715.78
2023-01-31T15:13:44.580Z,98715.78
2023-01-31T15:16:24.502Z,98722.81
2023-01-31T15:18:58.938Z,98718.53
2023-01-31T15:21:31.157Z,98720.25
2023-01-31T15:24:01.993Z,98722.94
2023-01-31T15:26:34.283Z,98722.94
2023-01-31T15:29:06.265Z,98721.16
2023-01-31T15:31:42.268Z,98717.56
2023-01-31T15:34:18.092Z,98722.13
2023-01-31T15:36:59.806Z,98717.00
2023-01-31T15:39:33.524Z,98716.16
2023-01-31T15:42:21.583Z,98717.00
2023-01-31T15:44:52.013Z,98713.72
2023-01-31T15:47:24.521Z,98709.38
2023-01-31T15:49:52.908Z,98715.72
2023-01-31T15:52:22.803Z,98707.81
2023-01-31T15:54:55.971Z,98711.31
2023-01-31T15:57:27.641Z,98718.59
2023-01-31T15:59:58.271Z,98712.53
2023-01-31T16:02:30.670Z,98712.72
2023-01-31T16:04:59.642Z,98717.22
2023-01-31T16:07:31.714Z,98717.56
2023-01-31T16:10:03.053Z,98717.81
2023-01-31T16:12:34.427Z,98708.41
2023-01-31T16:15:08.703Z,98696.22
2023-01-31T16:17:37.083Z,98696.63
2023-01-31T16:20:06.246Z,98701.47
2023-01-31T16:22:34.556Z,98696.22
2023-01-31T16:25:05.745Z,98700.09
2023-01-31T16:27:38.570Z,98704.56
2023-01-31T16:30:17.117Z,98696.34
2023-01-31T16:32:48.715Z,98696.44
2023-01-31T16:35:25.148Z,98697.56
2023-01-31T16:38:03.861Z,98688.06
2023-01-31T16:40:36.470Z,98688.44
2023-01-31T16:43:18.339Z,98685.00
2023-01-31T16:45:54.214Z,98689.56
2023-01-31T16:48:26.121Z,98686.09
2023-01-31T16:50:55.989Z,98686.97
2023-01-31T16:53:30.209Z,98684.47
2023-01-31T16:56:18.506Z,98679.31
2023-01-31T16:58:50.084Z,98680.16
2023-01-31T17:01:23.572Z,98680.03
2023-01-31T17:04:17.959Z,98681.94
2023-01-31T17:06:51.137Z,98673.16
2023-01-31T17:09:22.911Z,98670.44
2023-01-31T17:11:51.444Z,98665.22
2023-01-31T17:14:19.723Z,98653.84
2023-01-31T17:16:52.401Z,98646.81
2023-01-31T17:19:20.949Z,98646.00
2023-01-31T17:21:50.219Z,98644.13
2023-01-31T17:24:20.259Z,98644.00
2023-01-31T17:26:48.821Z,98642.50
2023-01-31T17:29:17.255Z,98646.75
2023-01-31T17:31:45.758Z,98637.94
2023-01-31T17:34:17.004Z,98639.03
2023-01-31T17:36:47.088Z,98636.22
2023-01-31T17:39:15.458Z,98624.84
2023-01-31T17:41:46.981Z,98622.31
2023-01-31T17:44:15.914Z,98615.94
2023-01-31T17:46:44.816Z,98608.94
2023-01-31T17:49:13.607Z,98602.81
2023-01-31T17:51:43.466Z,98601.84
2023-01-31T17:54:11.832Z,98591.41
2023-01-31T17:56:40.447Z,98590.34
2023-01-31T17:59:18.310Z,98587.69
2023-01-31T18:01:53.853Z,98590.34
2023-01-31T18:04:22.481Z,98585.13
2023-01-31T18:06:52.184Z,98581.44
2023-01-31T18:09:21.003Z,98570.28
2023-01-31T18:11:50.759Z,98565.81
2023-01-31T18:14:19.382Z,98566.59
2023-01-31T18:16:47.815Z,98557.09
2023-01-31T18:19:16.165Z,98557.81
2023-01-31T18:21:54.504Z,98554.44
2023-01-31T18:24:25.209Z,98546.34
2023-01-31T18:26:53.991Z,98547.06
2023-01-31T18:29:25.454Z,98546.06
2023-01-31T18:31:57.682Z,98553.06
2023-01-31T18:34:26.664Z,98538.84
2023-01-31T18:36:55.057Z,98533.63
2023-01-31T18:39:24.916Z,98531.91
2023-01-31T18:41:53.524Z,98530.91
2023-01-31T18:44:21.793Z,98531.63
2023-01-31T18:46:50.321Z,98527.38
2023-01-31T18:49:20.239Z,98521.09
2023-01-31T18:51:49.844Z,98515.06
2023-01-31T18:54:18.173Z,98500.22
2023-01-31T18:56:47.971Z,98507.16
2023-01-31T18:59:16.310Z,98488.72
2023-01-31T19:01:44.768Z,98489.56
2023-01-31T19:04:13.387Z,98488.50
2023-01-31T19:06:42.161Z,98504.38
2023-01-31T19:09:11.308Z,98510.50
2023-01-31T19:11:41.758Z,98480.66
2023-01-31T19:14:14.963Z,98490.44
2023-01-31T19:16:44.988Z,98474.59
2023-01-31T19:19:13.768Z,98471.13
2023-01-31T19:21:42.400Z,98482.38
2023-01-31T19:24:13.708Z,98499.84
2023-01-31T19:26:45.218Z,98485.88
2023-01-31T19:29:17.013Z,98482.34
2023-01-31T19:31:46.015Z,98480.56
2023-01-31T19:34:14.414Z,98471.59
2023-01-31T19:36:44.832Z,98473.56
2023-01-31T19:39:14.161Z,98476.66
2023-01-31T19:41:43.223Z,98476.78
2023-01-31T19:44:11.703Z,98464.47
2023-01-31T19:46:42.679Z,98463.41
2023-01-31T19:49:11.054Z,98451.75
2023-01-31T19:51:39.495Z,98457.22
2023-01-31T19:54:08.125Z,98451.84
2023-01-31T19:56:36.463Z,98444.91
2023-01-31T19:59:06.097Z,98450.91
2023-01-31T20:01:34.551Z,98440.13
2023-01-31T20:04:06.524Z,98441.97
2023-01-31T20:06:35.715Z,98433.09
2023-01-31T20:09:06.183Z,98433.94
2023-01-31T20:11:36.757Z,98433.72
2023-01-31T20:14:06.661Z,98430.91
2023-01-31T20:16:35.539Z,98434.56
2023-01-31T20:19:06.950Z,98432.94
2023-01-31T20:21:35.950Z,98431.19
2023-01-31T20:24:04.733Z,98422.63
2023-01-31T20:26:35.382Z,98434.78
2023-01-31T20:29:04.253Z,98431.25
2023-01-31T20:31:32.634Z,98425.09
2023-01-31T20:34:01.022Z,98426.69
2023-01-31T20:36:30.904Z,98416.19
2023-01-31T20:38:59.254Z,98419.78
2023-01-31T20:41:27.596Z,98412.19
2023-01-31T20:43:56.095Z,98405.06
2023-01-31T20:46:24.773Z,98405.16
2023-01-31T20:48:53.070Z,98404.22
2023-01-31T20:51:21.561Z,98398.81
2023-01-31T20:53:51.273Z,98394.31
2023-01-31T20:56:19.749Z,98404.00
2023-01-31T20:58:48.139Z,98410.06
2023-01-31T21:01:16.842Z,98410.03
2023-01-31T21:03:45.164Z,98409.03
2023-01-31T21:06:13.498Z,98405.50
2023-01-31T21:08:41.872Z,98413.28
2023-01-31T21:11:14.102Z,98411.59
2023-01-31T21:13:43.902Z,98399.16
2023-01-31T21:16:15.570Z,98387.91
2023-01-31T21:18:45.081Z,98381.41
2023-01-31T21:21:15.347Z,98381.59
2023-01-31T21:23:43.599Z,98387.59
2023-01-31T21:26:13.402Z,98402.44
2023-01-31T21:28:43.719Z,98404.41
2023-01-31T21:31:16.930Z,98409.56
2023-01-31T21:33:46.127Z,98409.50
2023-01-31T21:36:16.599Z,98406.88
2023-01-31T21:38:45.616Z,98401.44
2023-01-31T21:41:33.176Z,98406.75
2023-01-31T21:44:01.966Z,98403.88
2023-01-31T21:46:31.177Z,98403.22
2023-01-31T21:49:01.010Z,98397.06
2023-01-31T21:51:29.758Z,98389.19
2023-01-31T21:53:58.343Z,98391.66
2023-01-31T21:56:29.841Z,98398.75
2023-01-31T21:58:58.615Z,98382.09
2023-01-31T22:01:29.137Z,98389.00
2023-01-31T22:03:58.086Z,98381.06
2023-01-31T22:06:31.413Z,98370.66
2023-01-31T22:09:01.739Z,98377.59
2023-01-31T22:11:33.365Z,98365.00
2023-01-31T22:14:02.975Z,98373.28
2023-01-31T22:16:31.763Z,98379.41
2023-01-31T22:19:01.002Z,98385.31
2023-01-31T22:21:31.248Z,98377.53
2023-01-31T22:24:01.303Z,98381.84
2023-01-31T22:26:33.224Z,98366.03
2023-01-31T22:29:03.260Z,98353.66
2023-01-31T22:31:31.963Z,98365.06
2023-01-31T22:34:01.228Z,98368.47
2023-01-31T22:36:29.677Z,98359.59
2023-01-31T22:38:59.013Z,98354.53
2023-01-31T22:41:27.560Z,98339.56
2023-01-31T22:43:57.463Z,98335.19
2023-01-31T22:46:28.723Z,98343.69
2023-01-31T22:48:57.687Z,98344.66
2023-01-31T22:51:27.950Z,98338.44
2023-01-31T22:53:57.066Z,98347.94
2023-01-31T22:56:28.399Z,98336.44
2023-01-31T22:58:59.458Z,98346.81
2023-01-31T23:01:30.822Z,98351.97
2023-01-31T23:04:01.446Z,98350.13
2023-01-31T23:06:30.252Z,98350.34
2023-01-31T23:08:59.156Z,98341.34
2023-01-31T23:11:28.267Z,98344.75
2023-01-31T23:13:58.765Z,98335.53
2023-01-31T23:16:47.959Z,98331.22
2023-01-31T23:19:17.123Z,98319.50
2023-01-31T23:21:45.701Z,98325.31
2023-01-31T23:24:15.665Z,98335.88
2023-01-31T23:26:44.592Z,98322.63
2023-01-31T23:29:14.432Z,98308.94
2023-01-31T23:31:42.924Z,98309.50
2023-01-31T23:34:11.335Z,98307.91
2023-01-31T23:36:39.660Z,98325.44
2023-01-31T23:39:07.963Z,98354.16
2023-01-31T23:41:36.247Z,98341.84
2023-01-31T23:44:04.828Z,98340.66
2023-01-31T23:46:34.666Z,98339.69
2023-01-31T23:49:03.055Z,98354.56
2023-01-31T23:51:33.770Z,98359.78
2023-01-31T23:54:02.248Z,98343.72
2023-01-31T23:56:30.803Z,98364.00
2023-01-31T23:58:59.072Z,98362.22
